Sea Otter — WDH4842 — position and weather

sailwx.info

Track history (hours):
 
Tides and Currents Weather Stations Pressure Air Temp Water Temp Dewpoint Dewpoint Depression Visibility Wind Speed Wind Dir Waves Ship Positions

Sea Otter

Owner: GARBER BROTHERS INC, MORGAN CITY, LA. More information available from US FCC via Universal Licensing System and Coast Guard Vessel Documentation Center.

Last reported at 2017-Oct-16 01:36 UTC. Time now 2017-Oct-17 05:50 UTC.
Position N 29°27' W 090°43'.

Length 21 m.

Type: Other ship. MMSI: 367621940.

Date/timePositionNaut miles runAvg speedWind from/ knotsBaromVisibWave heightAir tempDewpointWater temp
2017-Oct-16 01:36N 29°27' W 090°43'1 8.1
2017-Oct-16 01:30N 29°28' W 090°43'4 8.1
2017-Oct-16 01:01N 29°31' W 090°42'3 6.4
2017-Oct-16 00:31N 29°35' W 090°43'2 4.8
2017-Oct-16 00:00N 29°37' W 090°41'2 3.2
2017-Oct-15 23:30N 29°36' W 090°40'0 0.0
2017-Oct-15 23:00N 29°36' W 090°40'0 0.0
2017-Oct-15 22:31N 29°36' W 090°40'1 1.4
2017-Oct-15 22:01N 29°36' W 090°41'2 4.2
2017-Oct-15 21:31N 29°35' W 090°43'3 6.0
2017-Oct-15 21:00N 29°32' W 090°42'4 8.8
2017-Oct-15 20:31N 29°28' W 090°43'5 8.8
2017-Oct-15 19:57N 29°23' W 090°44'1 0.3
2017-Oct-15 18:27N 29°24' W 090°44'3 5.2
2017-Oct-15 17:52N 29°25' W 090°47'2 5.6
2017-Oct-15 17:29N 29°25' W 090°50'5 0.5
2017-Oct-15 07:14N 29°26' W 090°43'2 7.1
2017-Oct-15 07:01N 29°27' W 090°43'4 8.2
2017-Oct-15 06:31N 29°31' W 090°42'3 5.8
2017-Oct-15 06:00N 29°34' W 090°43'2 4.6
2017-Oct-15 05:31N 29°36' W 090°43'2 4.8
2017-Oct-15 05:00N 29°36' W 090°40'0 0.0
2017-Oct-15 04:29N 29°36' W 090°40'0 0.0
2017-Oct-15 04:01N 29°36' W 090°40'0 0.0
2017-Oct-15 03:30N 29°36' W 090°40'0 0.0
2017-Oct-15 03:01N 29°36' W 090°40'1 2.9
2017-Oct-15 02:31N 29°36' W 090°41'2 4.7
2017-Oct-15 02:01N 29°35' W 090°43'2 4.9
2017-Oct-15 01:30N 29°32' W 090°42'4 8.6
2017-Oct-15 01:00N 29°28' W 090°43'5 8.2
2017-Oct-15 00:26N 29°23' W 090°44'3 6.2
2017-Oct-15 00:00N 29°25' W 090°47'3 4.9
2017-Oct-14 23:27N 29°25' W 090°50'12 0.9
2017-Oct-14 10:45N 29°19' W 091°01'0 0.0
2017-Oct-14 10:30N 29°19' W 091°01'14 0.3
2017-Oct-12 12:37N 29°24' W 090°46'2 6.6
2017-Oct-12 12:17N 29°23' W 090°44'2 2.1
2017-Oct-12 11:34N 29°22' W 090°44'0 0.0
2017-Oct-12 11:30N 29°22' W 090°44'0 0.0
2017-Oct-12 07:30N 29°22' W 090°44'0 0.0
2017-Oct-12 02:16N 29°22' W 090°44'2 0.6
2017-Oct-11 23:37N 29°24' W 090°44'1 7.3
2017-Oct-11 23:30N 29°24' W 090°45'3 5.7
2017-Oct-11 22:57N 29°25' W 090°48'  
2017-Oct-09 00:18N 29°26' W 090°43'2 7.9
2017-Oct-09 00:00N 29°28' W 090°43'4 8.4
2017-Oct-08 23:30N 29°32' W 090°42'2 4.8
2017-Oct-08 23:00N 29°34' W 090°43'2 4.8
2017-Oct-08 22:30N 29°37' W 090°42'2 4.7
2017-Oct-08 22:01N 29°36' W 090°40'0 0.0
2017-Oct-08 21:30N 29°36' W 090°40'0 0.0
2017-Oct-08 21:00N 29°36' W 090°40'0 0.0
2017-Oct-08 20:29N 29°36' W 090°40'2 4.9
2017-Oct-08 20:00N 29°37' W 090°42'3 5.7
2017-Oct-08 19:30N 29°34' W 090°43'3 6.4
2017-Oct-08 19:00N 29°31' W 090°43'4 7.3
2017-Oct-08 18:30N 29°27' W 090°43'3 5.4
2017-Oct-08 17:51N 29°24' W 090°45'2 5.8
2017-Oct-08 17:30N 29°25' W 090°47'4 0.1
2017-Oct-07 04:40N 29°28' W 090°43'1 7.4
2017-Oct-07 04:30N 29°29' W 090°43'4 7.4
2017-Oct-07 04:00N 29°32' W 090°42'2 4.0
2017-Oct-07 03:30N 29°34' W 090°43'3 5.0
2017-Oct-07 03:00N 29°37' W 090°42'2 4.5
2017-Oct-07 02:29N 29°36' W 090°40'0 0.0
2017-Oct-07 02:00N 29°36' W 090°40'0 0.0
2017-Oct-07 01:29N 29°36' W 090°40'0 0.0
2017-Oct-07 00:57N 29°36' W 090°40'2 3.7
2017-Oct-07 00:30N 29°37' W 090°41'3 5.3
2017-Oct-07 00:00N 29°34' W 090°43'4 8.7
2017-Oct-06 23:30N 29°30' W 090°43'5 9.2
2017-Oct-06 22:58N 29°25' W 090°43'2 4.4
2017-Oct-06 22:26N 29°24' W 090°46'2 5.0
2017-Oct-06 21:57N 29°25' W 090°49'  
Track history (hours):
 
Tides and Currents Weather Stations Pressure Air Temp Water Temp Dewpoint Dewpoint Depression Visibility Wind Speed Wind Dir Waves Ship Positions

Sea Otter

Owner: GARBER BROTHERS INC, MORGAN CITY, LA. More information available from US FCC via Universal Licensing System and Coast Guard Vessel Documentation Center.

Last reported at 2017-Oct-16 01:36 UTC. Time now 2017-Oct-17 05:50 UTC.
Position N 29°27' W 090°43'.

Length 21 m.

Type: Other ship. MMSI: 367621940.

Date/timePositionNaut miles runAvg speedWind from/ knotsBaromVisibWave heightAir tempDewpointWater temp
2017-Oct-16 01:36N 29°27' W 090°43'1 8.1
2017-Oct-16 01:30N 29°28' W 090°43'4 8.1
2017-Oct-16 01:01N 29°31' W 090°42'3 6.4
2017-Oct-16 00:31N 29°35' W 090°43'2 4.8
2017-Oct-16 00:00N 29°37' W 090°41'2 3.2
2017-Oct-15 23:30N 29°36' W 090°40'0 0.0
2017-Oct-15 23:00N 29°36' W 090°40'0 0.0
2017-Oct-15 22:31N 29°36' W 090°40'1 1.4
2017-Oct-15 22:01N 29°36' W 090°41'2 4.2
2017-Oct-15 21:31N 29°35' W 090°43'3 6.0
2017-Oct-15 21:00N 29°32' W 090°42'4 8.8
2017-Oct-15 20:31N 29°28' W 090°43'5 8.8
2017-Oct-15 19:57N 29°23' W 090°44'1 0.3
2017-Oct-15 18:27N 29°24' W 090°44'3 5.2
2017-Oct-15 17:52N 29°25' W 090°47'2 5.6
2017-Oct-15 17:29N 29°25' W 090°50'5 0.5
2017-Oct-15 07:14N 29°26' W 090°43'2 7.1
2017-Oct-15 07:01N 29°27' W 090°43'4 8.2
2017-Oct-15 06:31N 29°31' W 090°42'3 5.8
2017-Oct-15 06:00N 29°34' W 090°43'2 4.6
2017-Oct-15 05:31N 29°36' W 090°43'2 4.8
2017-Oct-15 05:00N 29°36' W 090°40'0 0.0
2017-Oct-15 04:29N 29°36' W 090°40'0 0.0
2017-Oct-15 04:01N 29°36' W 090°40'0 0.0
2017-Oct-15 03:30N 29°36' W 090°40'0 0.0
2017-Oct-15 03:01N 29°36' W 090°40'1 2.9
2017-Oct-15 02:31N 29°36' W 090°41'2 4.7
2017-Oct-15 02:01N 29°35' W 090°43'2 4.9
2017-Oct-15 01:30N 29°32' W 090°42'4 8.6
2017-Oct-15 01:00N 29°28' W 090°43'5 8.2
2017-Oct-15 00:26N 29°23' W 090°44'3 6.2
2017-Oct-15 00:00N 29°25' W 090°47'3 4.9
2017-Oct-14 23:27N 29°25' W 090°50'12 0.9
2017-Oct-14 10:45N 29°19' W 091°01'0 0.0
2017-Oct-14 10:30N 29°19' W 091°01'14 0.3
2017-Oct-12 12:37N 29°24' W 090°46'2 6.6
2017-Oct-12 12:17N 29°23' W 090°44'2 2.1
2017-Oct-12 11:34N 29°22' W 090°44'0 0.0
2017-Oct-12 11:30N 29°22' W 090°44'0 0.0
2017-Oct-12 07:30N 29°22' W 090°44'0 0.0
2017-Oct-12 02:16N 29°22' W 090°44'2 0.6
2017-Oct-11 23:37N 29°24' W 090°44'1 7.3
2017-Oct-11 23:30N 29°24' W 090°45'3 5.7
2017-Oct-11 22:57N 29°25' W 090°48'  
2017-Oct-09 00:18N 29°26' W 090°43'2 7.9
2017-Oct-09 00:00N 29°28' W 090°43'4 8.4
2017-Oct-08 23:30N 29°32' W 090°42'2 4.8
2017-Oct-08 23:00N 29°34' W 090°43'2 4.8
2017-Oct-08 22:30N 29°37' W 090°42'2 4.7
2017-Oct-08 22:01N 29°36' W 090°40'0 0.0
2017-Oct-08 21:30N 29°36' W 090°40'0 0.0
2017-Oct-08 21:00N 29°36' W 090°40'0 0.0
2017-Oct-08 20:29N 29°36' W 090°40'2 4.9
2017-Oct-08 20:00N 29°37' W 090°42'3 5.7
2017-Oct-08 19:30N 29°34' W 090°43'3 6.4
2017-Oct-08 19:00N 29°31' W 090°43'4 7.3
2017-Oct-08 18:30N 29°27' W 090°43'3 5.4
2017-Oct-08 17:51N 29°24' W 090°45'2 5.8
2017-Oct-08 17:30N 29°25' W 090°47'4 0.1
2017-Oct-07 04:40N 29°28' W 090°43'1 7.4
2017-Oct-07 04:30N 29°29' W 090°43'4 7.4
2017-Oct-07 04:00N 29°32' W 090°42'2 4.0
2017-Oct-07 03:30N 29°34' W 090°43'3 5.0
2017-Oct-07 03:00N 29°37' W 090°42'2 4.5
2017-Oct-07 02:29N 29°36' W 090°40'0 0.0
2017-Oct-07 02:00N 29°36' W 090°40'0 0.0
2017-Oct-07 01:29N 29°36' W 090°40'0 0.0
2017-Oct-07 00:57N 29°36' W 090°40'2 3.7
2017-Oct-07 00:30N 29°37' W 090°41'3 5.3
2017-Oct-07 00:00N 29°34' W 090°43'4 8.7
2017-Oct-06 23:30N 29°30' W 090°43'5 9.2
2017-Oct-06 22:58N 29°25' W 090°43'2 4.4
2017-Oct-06 22:26N 29°24' W 090°46'2 5.0
2017-Oct-06 21:57N 29°25' W 090°49'  

Dump ship's entire track history